地図

経路データ

SID SEASON NUMBER BASIN SUBBASIN NAME ISO_TIME NATURE LAT LON WMO_WIND WMO_PRES WMO_AGENCY TRACK_TYPE DIST2LAND LANDFALL IFLAG USA_AGENCY USA_ATCF_ID USA_LAT USA_LON USA_RECORD USA_STATUS USA_WIND USA_PRES USA_SSHS USA_R34_NE USA_R34_SE USA_R34_SW USA_R34_NW USA_R50_NE USA_R50_SE USA_R50_SW USA_R50_NW USA_R64_NE USA_R64_SE USA_R64_SW USA_R64_NW USA_POCI USA_ROCI USA_RMW USA_EYE TOKYO_LAT TOKYO_LON TOKYO_GRADE TOKYO_WIND TOKYO_PRES TOKYO_R50_DIR TOKYO_R50_LONG TOKYO_R50_SHORT TOKYO_R30_DIR TOKYO_R30_LONG TOKYO_R30_SHORT TOKYO_LAND CMA_LAT CMA_LON CMA_CAT CMA_WIND CMA_PRES HKO_LAT HKO_LON HKO_CAT HKO_WIND HKO_PRES NEWDELHI_LAT NEWDELHI_LON NEWDELHI_GRADE NEWDELHI_WIND NEWDELHI_PRES NEWDELHI_CI NEWDELHI_DP NEWDELHI_POCI REUNION_LAT REUNION_LON REUNION_TYPE REUNION_WIND REUNION_PRES REUNION_TNUM REUNION_CI REUNION_RMW REUNION_R34_NE REUNION_R34_SE REUNION_R34_SW REUNION_R34_NW REUNION_R50_NE REUNION_R50_SE REUNION_R50_SW REUNION_R50_NW REUNION_R64_NE REUNION_R64_SE REUNION_R64_SW REUNION_R64_NW BOM_LAT BOM_LON BOM_TYPE BOM_WIND BOM_PRES BOM_TNUM BOM_CI BOM_RMW BOM_R34_NE BOM_R34_SE BOM_R34_SW BOM_R34_NW BOM_R50_NE BOM_R50_SE BOM_R50_SW BOM_R50_NW BOM_R64_NE BOM_R64_SE BOM_R64_SW BOM_R64_NW BOM_ROCI BOM_POCI BOM_EYE BOM_POS_METHOD BOM_PRES_METHOD NADI_LAT NADI_LON NADI_CAT NADI_WIND NADI_PRES WELLINGTON_LAT WELLINGTON_LON WELLINGTON_WIND WELLINGTON_PRES DS824_LAT DS824_LON DS824_STAGE DS824_WIND DS824_PRES TD9636_LAT TD9636_LON TD9636_STAGE TD9636_WIND TD9636_PRES TD9635_LAT TD9635_LON TD9635_WIND TD9635_PRES TD9635_ROCI NEUMANN_LAT NEUMANN_LON NEUMANN_CLASS NEUMANN_WIND NEUMANN_PRES MLC_LAT MLC_LON MLC_CLASS MLC_WIND MLC_PRES USA_GUST BOM_GUST BOM_GUST_PER REUNION_GUST REUNION_GUST_PER USA_SEAHGT USA_SEARAD_NE USA_SEARAD_SE USA_SEARAD_SW USA_SEARAD_NW STORM_SPEED STORM_DIR
1957084S17110 1957 26 SI WA NOT_NAMED 1957-03-25 01:00:00 NR -17.0000 110.200 985 bom spur-merge 677 677 ______O_______ -1 -17.0000 110.200 985 5 271
1957084S17110 1957 26 SI WA NOT_NAMED 1957-03-25 03:00:00 NR -16.9980 110.011 spur-merge 690 690 ______P_______ -1 -16.9980 110.011 5 271
1957084S17110 1957 26 SI WA NOT_NAMED 1957-03-25 06:00:00 NR -16.9920 109.728 spur-merge 709 709 ______P_______ -1 -16.9920 109.728 5 272
1957084S17110 1957 26 SI WA NOT_NAMED 1957-03-25 09:00:00 NR -16.9791 109.447 spur-merge 729 729 ______P_______ -1 -16.9791 109.447 5 273
1957084S17110 1957 26 SI WA NOT_NAMED 1957-03-25 11:00:00 NR -16.9648 109.260 spur-merge 736 743 ______P_______ -1 -16.9648 109.260 5 275
1957084S17110 1957 26 SI WA NOT_NAMED 1957-03-25 12:00:00 NR -16.9554 109.167 spur-merge 743 743 ______P_______ -1 -16.9554 109.167 5 278
1957084S17110 1957 26 SI WA NOT_NAMED 1957-03-25 15:00:00 NR -16.9168 108.891 spur-merge 773 773 ______P_______ -1 -16.9168 108.891 5 279
1957084S17110 1957 26 SI WA NOT_NAMED 1957-03-25 16:00:00 NR -16.9000 108.800 982 bom spur-merge 781 781 ______O_______ -1 -16.9000 108.800 982 5 282
1957084S17110 1957 26 SI WA NOT_NAMED 1957-03-25 18:00:00 NR -16.8603 108.619 spur-merge 795 795 ______P_______ -1 -16.8603 108.619 981 5 284
1957084S17110 1957 26 SI WA NOT_NAMED 1957-03-25 21:00:00 NR -16.7914 108.351 spur-merge 818 826 ______P_______ -1 -16.7914 108.351 980 5 285
1957084S17110 1957 26 SI WA NOT_NAMED 1957-03-25 23:00:00 NR -16.7443 108.175 spur-merge 841 841 ______P_______ -1 -16.7443 108.175 980 5 286
1957084S17110 1957 26 SI WA NOT_NAMED 1957-03-26 00:00:00 TS -16.7172 108.090 spur-merge 849 849 ______P__O____ -1 -16.7215 108.087 980 -16.7000 108.100 TC 60 980 5 286
1957084S17110 1957 26 SI WA NOT_NAMED 1957-03-26 01:00:00 TS -16.6974 108.006 980 bom spur-merge 856 856 ______O__P____ -1 -16.7000 108.000 980 4 -16.6921 108.017 TC 5 282
1957084S17110 1957 26 SI WA NOT_NAMED 1957-03-26 03:00:00 TS -16.6677 107.837 spur-merge 872 872 ______P__P____ -1 -16.6614 107.827 -16.6761 107.850 TC 5 279
1957084S17110 1957 26 SI WA NOT_NAMED 1957-03-26 06:00:00 TS -16.6330 107.585 spur-merge 895 895 ______P__P____ -1 -16.6142 107.571 -16.6518 107.600 TC 5 278
1957084S17110 1957 26 SI WA NOT_NAMED 1957-03-26 09:00:00 TS -16.6027 107.334 spur-merge 919 919 ______P__P____ -1 -16.5781 107.318 -16.6272 107.350 TC 5 277
1957084S17110 1957 26 SI WA NOT_NAMED 1957-03-26 11:00:00 TS -16.5850 107.167 spur-merge 927 927 ______P__P____ -1 -16.5594 107.151 -16.6107 107.183 TC 5 276
1957084S17110 1957 26 SI WA NOT_NAMED 1957-03-26 12:00:00 TS -16.5769 107.084 spur-merge 935 935 ______P__P____ -1 -16.5514 107.068 -16.6024 107.099 TC 5 275
1957084S17110 1957 26 SI WA NOT_NAMED 1957-03-26 15:00:00 TS -16.5548 106.834 spur-merge 960 960 ______P__P____ -1 -16.5323 106.819 -16.5772 106.849 TC 5 275
1957084S17110 1957 26 SI WA NOT_NAMED 1957-03-26 18:00:00 TS -16.5354 106.586 spur-merge 983 983 ______P__P____ -1 -16.5189 106.572 -16.5518 106.600 TC 5 275
1957084S17110 1957 26 SI WA NOT_NAMED 1957-03-26 21:00:00 TS -16.5166 106.337 spur-merge 998 998 ______P__P____ -1 -16.5095 106.327 -16.5260 106.350 TC 5 274
1957084S17110 1957 26 SI WA NOT_NAMED 1957-03-26 23:00:00 TS -16.5062 106.171 spur-merge 1000 1000 ______P__P____ -1 -16.5046 106.163 -16.5087 106.183 TC 5 274
1957084S17110 1957 26 SI WA NOT_NAMED 1957-03-27 00:00:00 TS -16.5015 106.088 spur-merge 1002 1002 ______P__O____ -1 -16.5023 106.082 -16.5000 106.100 TC 60 980 5 272
1957084S17110 1957 26 SI WA NOT_NAMED 1957-03-27 01:00:00 NR -16.5000 106.000 980 bom spur-merge 1004 ______O_______ -1 -16.5000 106.000 980 TC 5 271

IBTrACS Databaseについて

本データベースは、米国NOAAが公開する1842年以降の世界の熱帯低気圧のベストトラックデータアーカイブInternational Best Track Archive for Climate Stewardship (IBTrACS)を、ウェブで閲覧しやすい形式に変換したものです。

最終更新日:2021-10-25